Hauptseite
METAR-TAF:

METAR-TAF

Flughäfen :

Washington, Pennsylvania, Vereinigte Staaten

Breite: 40-08N, Länge: 080-17W, Höhe: 361 m

Beobachtung

Neuester Wetterbericht von vor 51 Minuten, um 00:56 UTC
Windstille
Temperatur -1°C
Luftfeuchtigkeit 80%
Luftdruck 1023 hPa
Sichtweite: 16.1 km
Geschlossene Wolkendecke in der Höhe von 11000 ft

METAR: KAFJ 160056Z AUTO 00000KT 10SM OVC110 M01/M04 A3021 RMK AO2 SLPNO T10111039 PWINO FZRANO $

Zeit: 20:47 (01:47 UTC)


TAF: fehlend

Wetterbeobachtungen und Prognosen von mehr als 4000 Flughäfen (METAR und TAF Bericht).

Die verfügbaren Stationen werden durch gelbe und rote Markierungen auf der Karte dargestellt.

Führen Sie die Maus auf sie, um den Namen der Station zu sehen.

Darauf klicken, um die Beobachtung von Wetterbeobachtungen und Prognosen zu sehen.

Um die Karte zu ändern : klicken Sie auf den grünen Tasten mit einem schwarzen Kreuz Zum Vergrößern, auf den grünen Button mit einem Gedankenstrich zu verkleinern, oder auf die grünen Pfeile für benachbarte Karten.


METAR-TAF: